Time;durP1;ratioP1;P1;durP2;ratioP2;P2;SDS_P1;SDS_P2;PMS_P1;PMS_P2;Temp;Humidity;BMP_temperature;BMP_pressure;BME280_temperature;BME280_humidity;BME280_pressure;Samples;Min_cycle;Max_cycle;Signal;HPM_P1;HPM_P2
2022/12/08 00:01:45;;;;;;;21.00;14.00;;;;;;;;;;4883882;29;20044;-62
2022/12/08 00:04:11;;;;;;;22.10;14.02;;;;;;;;;;4899710;29;20131;-62
2022/12/08 00:09:26;;;;;;;21.65;13.80;;;;;;;;;;4898707;29;20083;-62
2022/12/08 00:11:59;;;;;;;25.25;14.40;;;;;;;;;;4897990;29;20052;-62
2022/12/08 00:14:36;;;;;;;20.90;12.30;;;;;;;;;;4897800;29;20040;-62
2022/12/08 00:17:03;;;;;;;20.80;13.13;;;;;;;;;;4897219;29;20076;-62
2022/12/08 00:19:30;;;;;;;21.40;13.20;;;;;;;;;;4897695;29;20040;-62
2022/12/08 00:21:56;;;;;;;18.52;12.20;;;;;;;;;;4897764;29;20048;-62
2022/12/08 00:24:23;;;;;;;21.42;12.00;;;;;;;;;;4880529;29;20605;-62
2022/12/08 00:26:50;;;;;;;18.92;11.18;;;;;;;;;;4897244;29;20144;-62
2022/12/08 00:29:17;;;;;;;18.40;11.85;;;;;;;;;;4881209;29;20498;-62
2022/12/08 00:31:43;;;;;;;19.30;11.23;;;;;;;;;;4897624;29;20131;-62
2022/12/08 00:34:10;;;;;;;16.17;11.25;;;;;;;;;;4897783;29;20480;-62
2022/12/08 00:36:37;;;;;;;17.25;11.48;;;;;;;;;;4897069;29;20079;-62
2022/12/08 00:39:04;;;;;;;17.23;11.20;;;;;;;;;;4897861;29;20041;-62
2022/12/08 00:44:17;;;;;;;17.88;11.45;;;;;;;;;;4897570;29;20048;-62
2022/12/08 00:46:44;;;;;;;20.88;12.00;;;;;;;;;;4896461;29;20131;-60
2022/12/08 00:49:11;;;;;;;17.77;10.85;;;;;;;;;;4897260;29;20502;-63
2022/12/08 00:51:37;;;;;;;19.75;10.95;;;;;;;;;;4897179;29;20513;-61
2022/12/08 00:54:04;;;;;;;17.73;11.07;;;;;;;;;;4897219;29;20191;-62
2022/12/08 00:56:31;;;;;;;16.80;10.10;;;;;;;;;;4896623;29;20059;-61
2022/12/08 00:58:57;;;;;;;16.95;11.38;;;;;;;;;;4897283;29;20072;-64
2022/12/08 01:01:24;;;;;;;17.05;10.75;;;;;;;;;;4897358;29;20041;-63
2022/12/08 01:03:50;;;;;;;17.67;10.85;;;;;;;;;;4898872;29;20063;-63
2022/12/08 01:06:17;;;;;;;18.85;11.27;;;;;;;;;;4881323;29;20080;-62
2022/12/08 01:08:43;;;;;;;18.65;10.88;;;;;;;;;;4880194;29;20084;-62
2022/12/08 01:11:14;;;;;;;19.67;11.57;;;;;;;;;;4897040;29;20076;-63
2022/12/08 01:13:40;;;;;;;16.80;10.60;;;;;;;;;;4896802;29;20462;-63
2022/12/08 01:16:07;;;;;;;18.83;11.07;;;;;;;;;;4896120;29;20072;-63
2022/12/08 01:18:34;;;;;;;20.73;12.02;;;;;;;;;;4896831;29;20045;-63
2022/12/08 01:21:01;;;;;;;19.92;11.48;;;;;;;;;;4879887;29;20609;-63
2022/12/08 01:23:28;;;;;;;19.63;11.50;;;;;;;;;;4880075;29;20080;-62
2022/12/08 01:25:54;;;;;;;17.17;11.23;;;;;;;;;;4896368;29;20429;-63
2022/12/08 01:28:20;;;;;;;16.58;10.35;;;;;;;;;;4896627;29;20096;-63
2022/12/08 01:30:47;;;;;;;16.60;10.43;;;;;;;;;;4896613;29;20090;-63
2022/12/08 01:33:13;;;;;;;15.70;10.23;;;;;;;;;;4896378;29;20040;-63
2022/12/08 01:35:39;;;;;;;17.60;11.32;;;;;;;;;;4895480;29;20074;-63
2022/12/08 01:38:06;;;;;;;16.30;10.18;;;;;;;;;;4896514;29;20037;-63
2022/12/08 01:40:32;;;;;;;17.42;10.27;;;;;;;;;;4896547;29;20040;-63
2022/12/08 01:42:58;;;;;;;14.65;9.18;;;;;;;;;;4896473;29;20044;-63
2022/12/08 01:45:26;;;;;;;14.20;9.77;;;;;;;;;;4895758;29;20474;-63
2022/12/08 01:47:55;;;;;;;16.98;8.73;;;;;;;;;;4896184;29;20076;-63
2022/12/08 01:50:22;;;;;;;13.70;8.70;;;;;;;;;;4896336;29;20057;-63
2022/12/08 01:52:52;;;;;;;15.93;8.75;;;;;;;;;;4896531;29;20109;-63
2022/12/08 01:55:22;;;;;;;12.77;8.85;;;;;;;;;;4895661;29;20107;-62
2022/12/08 01:57:51;;;;;;;12.98;9.07;;;;;;;;;;4896415;29;20087;-62
2022/12/08 02:00:19;;;;;;;13.20;8.73;;;;;;;;;;4896161;29;20119;-62
2022/12/08 02:02:45;;;;;;;15.60;9.40;;;;;;;;;;4896288;29;20127;-63
2022/12/08 02:05:12;;;;;;;15.68;9.40;;;;;;;;;;4895690;29;20052;-62
2022/12/08 02:07:39;;;;;;;13.68;9.05;;;;;;;;;;4896235;29;20131;-63
2022/12/08 02:10:05;;;;;;;12.43;8.57;;;;;;;;;;4879373;29;20131;-63
2022/12/08 02:12:32;;;;;;;16.55;9.65;;;;;;;;;;4896143;29;20136;-63
2022/12/08 02:14:58;;;;;;;13.82;9.13;;;;;;;;;;4895526;29;20079;-63
2022/12/08 02:17:36;;;;;;;14.30;9.02;;;;;;;;;;4896142;29;20096;-63
2022/12/08 02:20:03;;;;;;;15.85;8.55;;;;;;;;;;4896039;29;20570;-64
2022/12/08 02:22:42;;;;;;;15.77;9.13;;;;;;;;;;4896064;29;20055;-62
2022/12/08 02:25:11;;;;;;;11.90;8.02;;;;;;;;;;4895624;29;20135;-64
2022/12/08 02:27:56;;;;;;;12.05;8.00;;;;;;;;;;4895923;29;20049;-62
2022/12/08 02:30:34;;;;;;;13.32;8.38;;;;;;;;;;4895878;29;20045;-61
2022/12/08 02:33:00;;;;;;;14.77;9.23;;;;;;;;;;4879403;29;20076;-61
2022/12/08 02:35:36;;;;;;;14.40;9.10;;;;;;;;;;4898067;29;20049;-62
2022/12/08 02:38:12;;;;;;;15.90;9.05;;;;;;;;;;4910872;29;20417;-63
2022/12/08 02:40:43;;;;;;;14.43;8.95;;;;;;;;;;4904721;29;20517;-62
2022/12/08 02:43:13;;;;;;;14.45;9.07;;;;;;;;;;4896029;29;20497;-62
2022/12/08 02:45:42;;;;;;;14.63;8.68;;;;;;;;;;4895140;29;20048;-62
2022/12/08 02:48:09;;;;;;;15.30;9.20;;;;;;;;;;4898289;29;20096;-64
2022/12/08 02:50:35;;;;;;;13.57;9.40;;;;;;;;;;4899676;29;20051;-62
2022/12/08 02:53:02;;;;;;;14.60;9.23;;;;;;;;;;4899461;29;20107;-62
2022/12/08 02:55:47;;;;;;;14.15;9.07;;;;;;;;;;4899002;29;20083;-62
2022/12/08 02:58:14;;;;;;;16.35;9.90;;;;;;;;;;4899306;29;20108;-62
2022/12/08 03:00:51;;;;;;;15.85;9.77;;;;;;;;;;4898887;29;20446;-62
2022/12/08 03:03:26;;;;;;;14.85;9.65;;;;;;;;;;4900134;29;20104;-62
2022/12/08 03:05:56;;;;;;;17.05;10.35;;;;;;;;;;4899229;29;20068;-63
2022/12/08 03:08:23;;;;;;;17.52;10.20;;;;;;;;;;4899405;29;20048;-61
2022/12/08 03:11:08;;;;;;;19.88;10.07;;;;;;;;;;4898880;29;20498;-63
2022/12/08 03:13:38;;;;;;;17.35;10.02;;;;;;;;;;4898844;29;20586;-61
2022/12/08 03:16:06;;;;;;;19.75;10.85;;;;;;;;;;4898353;29;20068;-62
2022/12/08 03:18:35;;;;;;;17.70;10.60;;;;;;;;;;4898853;29;20037;-61
2022/12/08 03:21:02;;;;;;;20.38;10.52;;;;;;;;;;4898776;29;20140;-62
2022/12/08 03:23:29;;;;;;;19.42;11.15;;;;;;;;;;4898794;29;20045;-62
2022/12/08 03:25:59;;;;;;;18.80;10.98;;;;;;;;;;4898050;29;20493;-62
2022/12/08 03:28:25;;;;;;;18.10;11.02;;;;;;;;;;4898796;29;20128;-62
2022/12/08 03:30:53;;;;;;;22.10;11.60;;;;;;;;;;4898771;29;20056;-62
2022/12/08 03:33:25;;;;;;;17.25;11.80;;;;;;;;;;4898407;29;20052;-62
2022/12/08 03:35:51;;;;;;;20.13;12.05;;;;;;;;;;4898045;29;20076;-62
2022/12/08 03:38:18;;;;;;;21.85;11.38;;;;;;;;;;4898704;29;20045;-62
2022/12/08 03:41:17;;;;;;;24.50;12.23;;;;;;;;;;4898448;29;20044;-62
2022/12/08 03:43:31;;;;;;;18.63;11.80;;;;;;;;;;4898440;29;20079;-63
2022/12/08 03:45:57;;;;;;;18.80;11.00;;;;;;;;;;4897629;29;20083;-62
2022/12/08 03:48:23;;;;;;;17.30;11.32;;;;;;;;;;4899225;29;20123;-62
2022/12/08 03:50:50;;;;;;;21.92;12.45;;;;;;;;;;4900386;29;20076;-62
2022/12/08 03:53:16;;;;;;;18.77;11.75;;;;;;;;;;4898645;29;20052;-62
2022/12/08 03:55:42;;;;;;;19.63;12.68;;;;;;;;;;4897438;29;20124;-62
2022/12/08 03:58:09;;;;;;;20.50;12.05;;;;;;;;;;4898127;29;20037;-62
2022/12/08 04:00:35;;;;;;;21.05;13.02;;;;;;;;;;4881307;29;20558;-63
2022/12/08 04:03:03;;;;;;;20.92;13.23;;;;;;;;;;4898512;29;20083;-62
2022/12/08 04:05:29;;;;;;;22.27;12.90;;;;;;;;;;4897989;29;20664;-63
2022/12/08 04:07:56;;;;;;;21.20;12.82;;;;;;;;;;4898326;29;20044;-62
2022/12/08 04:10:23;;;;;;;21.42;12.98;;;;;;;;;;4898498;29;20494;-63
2022/12/08 04:12:49;;;;;;;22.63;14.25;;;;;;;;;;4898577;29;20438;-63
2022/12/08 04:15:15;;;;;;;22.98;13.70;;;;;;;;;;4897539;29;20124;-63
2022/12/08 04:17:42;;;;;;;25.60;14.65;;;;;;;;;;4898203;29;20617;-63
2022/12/08 04:20:08;;;;;;;26.63;15.05;;;;;;;;;;4881385;29;20053;-63
2022/12/08 04:22:35;;;;;;;24.60;15.00;;;;;;;;;;4898385;29;20470;-63
2022/12/08 04:25:01;;;;;;;21.88;13.48;;;;;;;;;;4897813;29;20049;-63
2022/12/08 04:27:28;;;;;;;25.42;14.88;;;;;;;;;;4881363;29;20494;-63
2022/12/08 04:29:54;;;;;;;26.38;15.30;;;;;;;;;;4892256;29;20131;-63
2022/12/08 04:32:20;;;;;;;26.25;15.15;;;;;;;;;;4879310;29;20068;-63
2022/12/08 04:34:47;;;;;;;23.85;14.38;;;;;;;;;;4879198;29;20109;-63
2022/12/08 04:37:13;;;;;;;24.45;14.50;;;;;;;;;;4878583;29;20076;-63
2022/12/08 04:39:39;;;;;;;25.77;13.73;;;;;;;;;;4879221;29;20111;-63
2022/12/08 04:42:06;;;;;;;21.45;13.35;;;;;;;;;;4879160;29;20041;-63
2022/12/08 04:44:32;;;;;;;24.45;14.48;;;;;;;;;;4879107;29;20045;-63
2022/12/08 04:46:58;;;;;;;22.15;13.70;;;;;;;;;;4878346;29;20132;-63
2022/12/08 04:49:25;;;;;;;23.08;13.85;;;;;;;;;;4862443;29;20065;-63
2022/12/08 04:51:51;;;;;;;24.58;14.35;;;;;;;;;;4878988;29;20135;-63
2022/12/08 04:54:17;;;;;;;23.83;14.27;;;;;;;;;;4878834;29;20109;-63
2022/12/08 04:56:44;;;;;;;23.23;13.68;;;;;;;;;;4878227;29;20041;-63
2022/12/08 04:59:10;;;;;;;21.85;13.57;;;;;;;;;;4879105;29;20069;-63
2022/12/08 05:01:37;;;;;;;22.70;14.10;;;;;;;;;;5285374;23;20075;-62
2022/12/08 05:04:03;;;;;;;23.83;13.48;;;;;;;;;;4881188;29;20068;-61
2022/12/08 05:06:29;;;;;;;20.60;13.15;;;;;;;;;;4896928;29;20469;-62
2022/12/08 05:08:56;;;;;;;20.55;12.07;;;;;;;;;;4897893;29;20127;-62
2022/12/08 05:11:22;;;;;;;22.77;12.90;;;;;;;;;;4897188;29;20041;-63
2022/12/08 05:13:49;;;;;;;22.17;12.63;;;;;;;;;;4897401;29;20104;-62
2022/12/08 05:16:15;;;;;;;18.95;11.85;;;;;;;;;;4880178;29;20051;-62
2022/12/08 05:18:42;;;;;;;22.90;12.80;;;;;;;;;;4897915;29;20421;-63
2022/12/08 05:21:08;;;;;;;24.60;13.13;;;;;;;;;;4897415;29;20078;-63
2022/12/08 05:23:35;;;;;;;22.30;12.65;;;;;;;;;;4897582;29;20456;-62
2022/12/08 05:26:01;;;;;;;23.08;12.73;;;;;;;;;;4879861;29;20084;-63
2022/12/08 05:28:28;;;;;;;19.90;12.57;;;;;;;;;;4880563;29;20040;-63
2022/12/08 05:31:11;;;;;;;21.83;12.48;;;;;;;;;;4897424;29;20405;-62
2022/12/08 05:33:38;;;;;;;20.27;12.65;;;;;;;;;;4897082;29;20040;-63
2022/12/08 05:36:05;;;;;;;22.42;13.10;;;;;;;;;;4896406;29;20382;-63
2022/12/08 05:38:31;;;;;;;20.20;13.02;;;;;;;;;;4880345;29;20083;-63
2022/12/08 05:40:58;;;;;;;21.77;13.13;;;;;;;;;;4880184;29;20085;-63
2022/12/08 05:43:25;;;;;;;23.58;12.82;;;;;;;;;;4897012;29;20454;-64
2022/12/08 05:45:51;;;;;;;21.92;12.48;;;;;;;;;;4896526;29;20072;-63
2022/12/08 05:48:18;;;;;;;22.70;13.18;;;;;;;;;;4880566;29;20429;-63
2022/12/08 05:50:45;;;;;;;22.83;13.55;;;;;;;;;;4897192;29;20079;-63
2022/12/08 05:53:12;;;;;;;24.27;13.35;;;;;;;;;;4896951;29;20044;-64
2022/12/08 05:55:38;;;;;;;23.02;13.00;;;;;;;;;;4896268;29;20469;-62
2022/12/08 05:58:05;;;;;;;22.45;13.85;;;;;;;;;;4880366;29;20045;-62
2022/12/08 06:00:33;;;;;;;21.95;13.00;;;;;;;;;;4880135;29;20132;-63
2022/12/08 06:03:00;;;;;;;24.90;14.15;;;;;;;;;;4896771;29;20049;-63
2022/12/08 06:05:26;;;;;;;24.73;13.77;;;;;;;;;;4896454;29;20059;-65
2022/12/08 06:07:53;;;;;;;24.42;13.70;;;;;;;;;;4896928;29;20048;-64
2022/12/08 06:10:19;;;;;;;26.48;14.52;;;;;;;;;;4880161;29;20044;-64
2022/12/08 06:12:45;;;;;;;24.20;15.10;;;;;;;;;;4880163;29;20120;-63
2022/12/08 06:15:12;;;;;;;26.95;15.80;;;;;;;;;;4896138;29;20037;-63
2022/12/08 06:17:38;;;;;;;24.40;13.88;;;;;;;;;;4896892;29;20076;-63
2022/12/08 06:20:05;;;;;;;25.73;14.43;;;;;;;;;;4896970;29;20040;-64
2022/12/08 06:22:32;;;;;;;30.63;15.73;;;;;;;;;;4881155;29;20515;-63
2022/12/08 06:24:58;;;;;;;25.45;14.52;;;;;;;;;;4900179;29;20048;-61
2022/12/08 06:27:24;;;;;;;24.80;14.38;;;;;;;;;;4900398;29;20129;-63
2022/12/08 06:29:51;;;;;;;26.08;14.90;;;;;;;;;;4900348;29;20058;-63
2022/12/08 06:32:17;;;;;;;23.92;14.63;;;;;;;;;;4900251;29;20080;-63
2022/12/08 06:34:49;;;;;;;26.08;14.48;;;;;;;;;;4900545;29;20104;-62
2022/12/08 06:37:16;;;;;;;25.15;13.95;;;;;;;;;;4899759;29;20048;-62
2022/12/08 06:39:42;;;;;;;22.15;13.50;;;;;;;;;;4901283;29;20036;-62
2022/12/08 06:45:00;;;;;;;24.65;13.48;;;;;;;;;;4913457;29;20041;-62
2022/12/08 06:47:26;;;;;;;25.35;13.68;;;;;;;;;;4883868;29;20481;-62
2022/12/08 06:49:53;;;;;;;23.27;13.65;;;;;;;;;;4900346;29;20100;-62
2022/12/08 06:52:19;;;;;;;25.15;13.52;;;;;;;;;;4883323;29;20127;-63
2022/12/08 06:54:46;;;;;;;23.27;13.20;;;;;;;;;;4900068;29;20056;-61
2022/12/08 06:57:12;;;;;;;22.45;13.38;;;;;;;;;;4899496;29;20188;-61
2022/12/08 06:59:38;;;;;;;21.25;13.20;;;;;;;;;;4899966;29;20036;-63
2022/12/08 07:02:05;;;;;;;21.17;12.25;;;;;;;;;;4882826;29;20116;-63
2022/12/08 07:04:31;;;;;;;21.67;13.48;;;;;;;;;;4899751;29;20044;-62
2022/12/08 07:06:58;;;;;;;23.23;13.05;;;;;;;;;;4899225;29;20052;-62
2022/12/08 07:09:24;;;;;;;21.17;12.07;;;;;;;;;;4899684;29;20052;-62
2022/12/08 07:11:50;;;;;;;21.45;11.98;;;;;;;;;;4883030;29;20104;-62
2022/12/08 07:14:19;;;;;;;19.65;12.07;;;;;;;;;;4882719;29;20112;-63
2022/12/08 07:16:45;;;;;;;17.70;10.93;;;;;;;;;;4898831;29;20139;-62
2022/12/08 07:19:11;;;;;;;21.27;13.05;;;;;;;;;;4899288;29;20123;-62
2022/12/08 07:21:38;;;;;;;20.65;11.73;;;;;;;;;;4899420;29;20087;-62
2022/12/08 07:24:04;;;;;;;21.35;12.65;;;;;;;;;;4899322;29;20040;-62
2022/12/08 07:26:31;;;;;;;17.08;10.82;;;;;;;;;;4898831;29;20079;-62
2022/12/08 07:28:58;;;;;;;17.85;10.98;;;;;;;;;;4899382;29;20506;-62
2022/12/08 07:31:25;;;;;;;19.92;11.85;;;;;;;;;;4898998;29;20048;-62
2022/12/08 07:33:52;;;;;;;20.30;11.35;;;;;;;;;;4898515;29;20048;-62
2022/12/08 07:36:19;;;;;;;19.08;11.57;;;;;;;;;;4898446;29;20052;-62
2022/12/08 07:38:46;;;;;;;17.77;10.38;;;;;;;;;;4899267;29;20124;-62
2022/12/08 07:41:17;;;;;;;18.63;11.40;;;;;;;;;;4899074;29;20041;-62
2022/12/08 07:43:43;;;;;;;18.45;10.85;;;;;;;;;;4899074;29;20064;-63
2022/12/08 07:46:10;;;;;;;17.10;10.63;;;;;;;;;;4881772;29;20076;-64
2022/12/08 07:48:37;;;;;;;18.67;11.68;;;;;;;;;;4902021;29;20155;-64
2022/12/08 07:51:04;;;;;;;17.08;10.30;;;;;;;;;;4902261;29;20113;-65
2022/12/08 07:53:31;;;;;;;19.75;10.95;;;;;;;;;;4899019;29;20135;-65
2022/12/08 07:55:57;;;;;;;14.88;9.95;;;;;;;;;;4898339;29;20079;-65
2022/12/08 07:58:24;;;;;;;16.23;9.23;;;;;;;;;;4898636;29;20075;-65
2022/12/08 08:00:51;;;;;;;16.70;10.55;;;;;;;;;;4898951;29;20079;-65
2022/12/08 08:03:17;;;;;;;14.95;9.55;;;;;;;;;;4898562;29;20041;-66
2022/12/08 08:05:46;;;;;;;14.50;9.55;;;;;;;;;;4898407;29;20048;-66
2022/12/08 08:08:12;;;;;;;17.90;10.63;;;;;;;;;;4898921;29;20087;-66
2022/12/08 08:10:39;;;;;;;14.10;9.30;;;;;;;;;;4899130;29;20072;-66
2022/12/08 08:13:05;;;;;;;16.00;10.20;;;;;;;;;;4898869;29;20097;-66
2022/12/08 08:15:31;;;;;;;15.18;10.02;;;;;;;;;;4898668;29;20088;-65
2022/12/08 08:17:58;;;;;;;19.05;11.82;;;;;;;;;;4898602;29;20048;-66
2022/12/08 08:20:24;;;;;;;15.02;9.93;;;;;;;;;;4881949;29;20052;-65
2022/12/08 08:22:51;;;;;;;17.92;10.93;;;;;;;;;;4898316;29;20127;-67
2022/12/08 08:25:19;;;;;;;15.80;11.55;;;;;;;;;;4881493;29;20045;-63
2022/12/08 08:27:45;;;;;;;13.60;9.80;;;;;;;;;;4881762;29;20045;-64
2022/12/08 08:30:13;;;;;;;15.23;9.13;;;;;;;;;;4881391;29;20052;-64
2022/12/08 08:32:46;;;;;;;13.40;8.50;;;;;;;;;;4882516;29;20071;-65
2022/12/08 08:35:13;;;;;;;14.32;9.23;;;;;;;;;;4880959;29;20506;-64
2022/12/08 08:37:39;;;;;;;14.73;9.32;;;;;;;;;;4881436;29;20052;-64
2022/12/08 08:40:13;;;;;;;12.45;8.60;;;;;;;;;;4898216;29;20076;-65
2022/12/08 08:42:39;;;;;;;17.10;9.15;;;;;;;;;;4898345;29;20109;-65
2022/12/08 08:45:06;;;;;;;15.40;9.80;;;;;;;;;;4880404;29;20068;-66
2022/12/08 08:47:32;;;;;;;14.82;9.88;;;;;;;;;;4881268;29;20123;-65
2022/12/08 08:49:59;;;;;;;13.57;9.23;;;;;;;;;;4897916;29;20040;-66
2022/12/08 08:52:25;;;;;;;14.07;8.90;;;;;;;;;;4898043;29;20053;-65
2022/12/08 08:54:51;;;;;;;16.02;9.27;;;;;;;;;;4881918;29;20080;-65
2022/12/08 08:57:18;;;;;;;13.32;9.57;;;;;;;;;;4898686;29;20087;-66
2022/12/08 08:59:50;;;;;;;13.80;8.57;;;;;;;;;;4881282;29;20053;-66
2022/12/08 09:02:17;;;;;;;12.30;8.18;;;;;;;;;;4897627;29;20044;-66
2022/12/08 09:04:44;;;;;;;10.35;8.02;;;;;;;;;;4897624;29;20127;-66
2022/12/08 09:07:11;;;;;;;12.48;8.05;;;;;;;;;;4897636;29;20615;-65
2022/12/08 09:09:37;;;;;;;12.32;8.57;;;;;;;;;;4897962;29;20100;-65
2022/12/08 09:12:04;;;;;;;12.20;9.73;;;;;;;;;;4880983;29;20048;-65
2022/12/08 09:14:31;;;;;;;11.52;8.48;;;;;;;;;;4898177;29;20517;-65
2022/12/08 09:16:57;;;;;;;11.63;7.88;;;;;;;;;;4898064;29;20048;-65
2022/12/08 09:19:24;;;;;;;15.63;9.40;;;;;;;;;;4898719;29;20105;-66
2022/12/08 09:21:50;;;;;;;16.92;9.90;;;;;;;;;;4898713;29;20051;-66
2022/12/08 09:24:16;;;;;;;15.52;10.00;;;;;;;;;;4898520;29;20040;-67
2022/12/08 09:26:43;;;;;;;17.67;10.95;;;;;;;;;;4898105;29;20100;-66
2022/12/08 09:29:10;;;;;;;17.52;10.98;;;;;;;;;;4898400;29;20040;-66
2022/12/08 09:31:37;;;;;;;18.02;11.32;;;;;;;;;;4898726;29;20049;-66
2022/12/08 09:34:04;;;;;;;17.90;11.43;;;;;;;;;;4882369;29;20406;-65
2022/12/08 09:36:30;;;;;;;18.63;11.90;;;;;;;;;;4897413;29;20108;-65
2022/12/08 09:38:56;;;;;;;17.17;10.80;;;;;;;;;;4897503;29;20068;-65
2022/12/08 09:41:33;;;;;;;19.80;11.82;;;;;;;;;;4897685;29;20482;-65
2022/12/08 09:44:20;;;;;;;21.15;11.52;;;;;;;;;;4897409;29;20051;-65
2022/12/08 09:46:47;;;;;;;20.10;12.30;;;;;;;;;;4896581;29;20522;-65
2022/12/08 09:49:15;;;;;;;16.98;11.25;;;;;;;;;;4880506;29;20055;-65
2022/12/08 09:51:42;;;;;;;16.48;11.80;;;;;;;;;;4897176;29;20053;-65
2022/12/08 09:54:14;;;;;;;15.90;11.57;;;;;;;;;;4880750;29;20053;-65
2022/12/08 09:56:40;;;;;;;15.90;10.82;;;;;;;;;;4881324;29;20040;-65
2022/12/08 09:59:07;;;;;;;16.58;10.63;;;;;;;;;;4908487;29;20080;-65
2022/12/08 10:01:38;;;;;;;17.13;10.48;;;;;;;;;;4912001;29;20044;-65
2022/12/08 10:04:14;;;;;;;17.23;11.48;;;;;;;;;;4920316;29;20417;-65
2022/12/08 10:06:44;;;;;;;17.65;11.10;;;;;;;;;;4907894;29;20570;-65
2022/12/08 10:09:26;;;;;;;20.85;11.45;;;;;;;;;;4899719;29;20056;-65
2022/12/08 10:11:58;;;;;;;16.55;10.25;;;;;;;;;;4899501;29;20060;-65
2022/12/08 10:14:35;;;;;;;19.25;11.48;;;;;;;;;;4900987;29;20040;-65
2022/12/08 10:17:22;;;;;;;17.20;11.13;;;;;;;;;;4902137;29;20045;-65
2022/12/08 10:19:49;;;;;;;16.90;11.40;;;;;;;;;;4890740;29;20071;-65
2022/12/08 10:22:21;;;;;;;17.95;11.18;;;;;;;;;;4904575;29;20049;-65
2022/12/08 10:24:59;;;;;;;15.68;11.10;;;;;;;;;;4904890;29;20056;-65
2022/12/08 10:27:25;;;;;;;15.73;11.05;;;;;;;;;;4904029;29;20044;-65
2022/12/08 10:29:52;;;;;;;14.15;9.85;;;;;;;;;;4912493;29;20056;-66
2022/12/08 10:32:20;;;;;;;13.93;9.48;;;;;;;;;;4913670;29;20057;-65
2022/12/08 10:35:00;;;;;;;15.38;10.10;;;;;;;;;;4908955;29;20052;-65
2022/12/08 10:37:27;;;;;;;15.63;10.20;;;;;;;;;;4903243;29;20049;-64
2022/12/08 10:40:00;;;;;;;16.23;10.57;;;;;;;;;;4902443;29;20048;-65
2022/12/08 10:42:31;;;;;;;16.98;10.55;;;;;;;;;;4900135;29;20557;-65
2022/12/08 10:44:58;;;;;;;14.23;9.88;;;;;;;;;;4899687;29;20470;-65
2022/12/08 10:47:25;;;;;;;15.93;9.73;;;;;;;;;;4901329;29;20049;-65
2022/12/08 10:50:07;;;;;;;13.10;10.27;;;;;;;;;;4901373;29;20059;-65
2022/12/08 10:52:40;;;;;;;11.98;9.02;;;;;;;;;;4899990;29;20076;-64
2022/12/08 10:55:17;;;;;;;20.15;11.50;;;;;;;;;;4899126;29;20096;-64
2022/12/08 10:57:44;;;;;;;16.42;9.93;;;;;;;;;;4899537;29;20049;-64
2022/12/08 11:00:14;;;;;;;15.10;10.55;;;;;;;;;;4899619;29;20525;-64
2022/12/08 11:02:50;;;;;;;14.75;10.68;;;;;;;;;;4900733;29;20075;-64
2022/12/08 11:05:17;;;;;;;14.27;9.23;;;;;;;;;;4898623;29;20528;-66
2022/12/08 11:07:50;;;;;;;12.40;9.60;;;;;;;;;;4899020;29;20131;-66
2022/12/08 11:10:17;;;;;;;31.13;10.43;;;;;;;;;;4899101;29;20056;-63
2022/12/08 11:12:44;;;;;;;146.57;21.50;;;;;;;;;;4898495;29;20052;-64
2022/12/08 11:15:14;;;;;;;12.85;9.13;;;;;;;;;;4899223;29;20097;-65
2022/12/08 11:17:43;;;;;;;13.80;8.50;;;;;;;;;;4898492;29;20044;-66
2022/12/08 11:20:09;;;;;;;12.60;8.77;;;;;;;;;;4898329;29;20064;-65
2022/12/08 11:22:38;;;;;;;12.55;9.10;;;;;;;;;;4900183;29;20096;-64
2022/12/08 11:25:24;;;;;;;12.57;9.00;;;;;;;;;;4898137;29;20553;-65
2022/12/08 11:27:52;;;;;;;13.18;9.10;;;;;;;;;;4899939;29;20045;-64
2022/12/08 11:30:26;;;;;;;40.00;10.43;;;;;;;;;;4899893;29;20053;-66
2022/12/08 11:32:57;;;;;;;14.75;9.43;;;;;;;;;;4899434;29;20056;-65
2022/12/08 11:35:23;;;;;;;17.30;11.98;;;;;;;;;;4898853;29;20048;-66
2022/12/08 11:37:51;;;;;;;11.93;8.73;;;;;;;;;;4898583;29;20045;-65
2022/12/08 11:40:27;;;;;;;12.95;8.93;;;;;;;;;;4898234;29;20056;-65
2022/12/08 11:43:05;;;;;;;13.27;9.65;;;;;;;;;;4899151;29;20104;-65
2022/12/08 11:45:33;;;;;;;14.73;9.68;;;;;;;;;;4881725;29;20074;-65
2022/12/08 11:48:06;;;;;;;15.75;9.10;;;;;;;;;;4899255;29;20044;-64
2022/12/08 11:50:39;;;;;;;13.45;9.07;;;;;;;;;;4899182;29;20139;-65
2022/12/08 11:53:11;;;;;;;15.30;10.55;;;;;;;;;;4899094;29;20053;-64
2022/12/08 11:55:40;;;;;;;12.38;9.05;;;;;;;;;;4881703;29;20060;-64
2022/12/08 11:58:17;;;;;;;12.43;9.50;;;;;;;;;;4882003;29;20063;-63
2022/12/08 12:00:43;;;;;;;15.02;10.82;;;;;;;;;;4898669;29;20132;-64
2022/12/08 12:03:28;;;;;;;11.63;8.07;;;;;;;;;;4898673;29;20041;-65
2022/12/08 12:06:01;;;;;;;13.20;8.82;;;;;;;;;;4881767;29;20535;-64
2022/12/08 12:08:47;;;;;;;13.68;8.75;;;;;;;;;;4882219;29;20076;-65
2022/12/08 12:14:33;;;;;;;16.02;10.73;;;;;;;;;;4898555;29;20053;-65
2022/12/08 12:17:06;;;;;;;12.68;8.50;;;;;;;;;;4881066;29;20108;-64
2022/12/08 12:19:35;;;;;;;12.90;8.70;;;;;;;;;;4898634;29;20580;-64
2022/12/08 12:22:10;;;;;;;11.80;8.35;;;;;;;;;;4898211;29;20048;-63
2022/12/08 12:24:38;;;;;;;12.45;9.00;;;;;;;;;;4898406;29;20044;-64
2022/12/08 12:27:13;;;;;;;11.35;7.57;;;;;;;;;;4897728;29;20045;-66
2022/12/08 12:29:46;;;;;;;13.63;7.82;;;;;;;;;;4881701;29;20072;-65
2022/12/08 12:32:20;;;;;;;11.07;7.22;;;;;;;;;;4883021;29;20132;-66
2022/12/08 12:34:55;;;;;;;27.85;11.13;;;;;;;;;;4898194;29;20049;-65
2022/12/08 12:37:23;;;;;;;16.02;7.70;;;;;;;;;;4897890;29;20048;-66
2022/12/08 12:40:02;;;;;;;15.32;8.75;;;;;;;;;;4899098;29;20055;-65
2022/12/08 12:42:35;;;;;;;18.95;9.52;;;;;;;;;;4881279;29;20048;-65
2022/12/08 12:45:11;;;;;;;11.18;8.10;;;;;;;;;;4897818;29;20049;-65
2022/12/08 12:47:47;;;;;;;13.40;7.93;;;;;;;;;;4881371;29;20079;-66
2022/12/08 12:50:33;;;;;;;11.63;7.97;;;;;;;;;;4866925;29;20582;-66
2022/12/08 12:52:59;;;;;;;10.20;7.07;;;;;;;;;;4897950;29;20048;-65
2022/12/08 12:55:27;;;;;;;8.38;6.78;;;;;;;;;;4897230;29;20048;-66
2022/12/08 12:57:55;;;;;;;12.57;7.35;;;;;;;;;;4897721;29;20041;-64
2022/12/08 13:00:23;;;;;;;11.23;8.02;;;;;;;;;;4881100;29;20037;-65
2022/12/08 13:02:50;;;;;;;9.60;6.88;;;;;;;;;;4897481;29;20076;-65
2022/12/08 13:05:28;;;;;;;8.75;7.28;;;;;;;;;;4880548;29;20097;-65
2022/12/08 13:08:01;;;;;;;9.50;6.80;;;;;;;;;;4897636;29;20049;-66
2022/12/08 13:10:32;;;;;;;13.30;6.88;;;;;;;;;;4881255;29;20055;-65
2022/12/08 13:13:11;;;;;;;13.05;7.38;;;;;;;;;;4881045;29;20049;-64
2022/12/08 13:15:47;;;;;;;9.63;6.57;;;;;;;;;;4897094;29;20044;-65
2022/12/08 13:18:19;;;;;;;9.50;6.47;;;;;;;;;;4897453;29;20077;-64
2022/12/08 13:20:49;;;;;;;12.95;6.72;;;;;;;;;;4880742;29;20056;-65
2022/12/08 13:23:27;;;;;;;11.05;7.15;;;;;;;;;;4897227;29;20088;-64
2022/12/08 13:26:11;;;;;;;11.25;6.78;;;;;;;;;;4896725;29;20048;-65
2022/12/08 13:28:56;;;;;;;13.27;7.28;;;;;;;;;;4897221;29;20048;-65
2022/12/08 13:31:39;;;;;;;10.63;6.63;;;;;;;;;;4896887;29;20124;-64
2022/12/08 13:34:15;;;;;;;10.45;6.65;;;;;;;;;;4881914;29;20107;-64
2022/12/08 13:36:55;;;;;;;8.88;5.57;;;;;;;;;;4896722;29;20044;-65
2022/12/08 13:39:33;;;;;;;7.82;5.40;;;;;;;;;;4880663;29;20092;-65
2022/12/08 13:42:04;;;;;;;9.95;5.38;;;;;;;;;;4880379;29;20052;-64
2022/12/08 13:44:36;;;;;;;7.18;5.47;;;;;;;;;;4880431;29;20049;-64
2022/12/08 13:47:32;;;;;;;7.43;5.18;;;;;;;;;;4896644;29;20409;-65
2022/12/08 13:50:10;;;;;;;9.73;4.88;;;;;;;;;;4897114;29;20049;-64
2022/12/08 13:52:58;;;;;;;8.45;5.32;;;;;;;;;;4867284;29;20059;-66
2022/12/08 13:55:46;;;;;;;7.18;4.95;;;;;;;;;;4882458;29;20060;-66
2022/12/08 13:58:35;;;;;;;6.95;5.40;;;;;;;;;;4882774;29;20045;-66
2022/12/08 14:01:01;;;;;;;12.45;5.00;;;;;;;;;;4896925;29;20040;-66
2022/12/08 14:03:28;;;;;;;5.93;4.93;;;;;;;;;;4879860;29;20049;-66
2022/12/08 14:05:54;;;;;;;6.80;4.47;;;;;;;;;;4896224;29;20041;-66
2022/12/08 14:08:39;;;;;;;7.43;4.90;;;;;;;;;;4897164;29;20051;-66
2022/12/08 14:11:37;;;;;;;5.72;4.47;;;;;;;;;;4879778;29;20052;-64
2022/12/08 14:14:05;;;;;;;6.88;4.22;;;;;;;;;;4896725;29;20108;-66
2022/12/08 14:16:36;;;;;;;6.60;5.47;;;;;;;;;;4879438;29;20049;-66
2022/12/08 14:19:03;;;;;;;8.25;5.32;;;;;;;;;;4896491;29;20049;-67
2022/12/08 14:21:30;;;;;;;8.68;5.60;;;;;;;;;;4880295;29;20037;-65
2022/12/08 14:24:02;;;;;;;10.88;5.85;;;;;;;;;;4896905;29;20049;-65
2022/12/08 14:26:31;;;;;;;6.63;4.93;;;;;;;;;;4896108;29;20096;-65
2022/12/08 14:28:58;;;;;;;7.65;5.93;;;;;;;;;;4896521;29;20096;-65
2022/12/08 14:31:24;;;;;;;10.00;6.10;;;;;;;;;;4896541;29;20071;-65
2022/12/08 14:33:52;;;;;;;12.57;6.95;;;;;;;;;;4896818;29;20557;-65
2022/12/08 14:36:22;;;;;;;10.32;6.70;;;;;;;;;;4899863;29;20076;-65
2022/12/08 14:38:50;;;;;;;8.52;6.20;;;;;;;;;;4910084;29;20049;-64
2022/12/08 14:41:23;;;;;;;7.03;5.68;;;;;;;;;;4915410;29;20048;-65
2022/12/08 14:43:56;;;;;;;10.82;6.38;;;;;;;;;;4910951;29;20052;-64
2022/12/08 14:46:23;;;;;;;10.68;6.97;;;;;;;;;;4900827;29;20044;-64
2022/12/08 14:48:49;;;;;;;9.43;6.57;;;;;;;;;;4900036;29;20422;-64